Time;durP1;ratioP1;P1;durP2;ratioP2;P2;SDS_P1;SDS_P2;PMS_P1;PMS_P2;Temp;Humidity;BMP_temperature;BMP_pressure;BME280_temperature;BME280_humidity;BME280_pressure;Samples;Min_cycle;Max_cycle;Signal;HPM_P1;HPM_P2
2022/05/05 00:01:52;;;;;;;9.03;5.73;;;;;;;;;;5012199;28;20210;-70
2022/05/05 00:04:22;;;;;;;10.83;6.70;;;;;;;;;;5002540;28;20182;-70
2022/05/05 00:06:47;;;;;;;8.57;6.40;;;;;;;;;;5003274;28;20190;-69
2022/05/05 00:09:12;;;;;;;10.70;7.00;;;;;;;;;;5006908;28;20625;-69
2022/05/05 00:14:25;;;;;;;7.73;5.43;;;;;;;;;;5006297;28;20689;-68
2022/05/05 00:16:56;;;;;;;8.13;6.13;;;;;;;;;;5013083;28;20186;-69
2022/05/05 00:19:22;;;;;;;9.33;7.07;;;;;;;;;;5010502;28;20179;-69
2022/05/05 00:21:47;;;;;;;9.07;6.30;;;;;;;;;;5008975;28;20559;-69
2022/05/05 00:24:12;;;;;;;9.97;7.10;;;;;;;;;;5012348;28;20672;-69
2022/05/05 00:26:38;;;;;;;8.53;6.73;;;;;;;;;;5007207;28;20183;-69
2022/05/05 00:29:03;;;;;;;11.77;8.10;;;;;;;;;;5009080;28;20191;-69
2022/05/05 00:31:28;;;;;;;10.90;6.73;;;;;;;;;;5009936;28;21533;-70
2022/05/05 00:33:53;;;;;;;10.23;7.23;;;;;;;;;;5011539;28;20222;-70
2022/05/05 00:36:18;;;;;;;10.20;7.07;;;;;;;;;;5007401;28;20223;-70
2022/05/05 00:38:44;;;;;;;11.80;6.87;;;;;;;;;;5011580;28;20186;-71
2022/05/05 00:41:09;;;;;;;11.17;6.60;;;;;;;;;;5008038;28;20210;-69
2022/05/05 00:43:34;;;;;;;13.27;6.80;;;;;;;;;;5010755;28;20672;-68
2022/05/05 00:46:00;;;;;;;14.07;7.53;;;;;;;;;;5012483;28;20580;-68
2022/05/05 00:48:27;;;;;;;11.57;7.27;;;;;;;;;;5005102;28;20184;-68
2022/05/05 00:50:52;;;;;;;9.70;6.93;;;;;;;;;;5001625;28;20206;-68
2022/05/05 00:53:17;;;;;;;11.17;7.10;;;;;;;;;;5009309;28;20212;-68
2022/05/05 00:55:43;;;;;;;12.30;8.60;;;;;;;;;;5009399;28;20203;-69
2022/05/05 00:58:09;;;;;;;8.77;6.53;;;;;;;;;;5011442;28;20187;-69
2022/05/05 01:00:34;;;;;;;10.73;6.93;;;;;;;;;;5011364;28;20235;-68
2022/05/05 01:03:00;;;;;;;12.40;7.60;;;;;;;;;;5012324;28;20190;-68
2022/05/05 01:05:28;;;;;;;11.07;7.53;;;;;;;;;;5005191;28;20194;-69
2022/05/05 01:07:55;;;;;;;13.03;7.93;;;;;;;;;;5008073;28;20187;-69
2022/05/05 01:10:21;;;;;;;14.87;8.80;;;;;;;;;;5009931;28;20269;-69
2022/05/05 01:12:46;;;;;;;10.53;7.43;;;;;;;;;;5009742;28;20255;-69
2022/05/05 01:15:11;;;;;;;16.30;9.67;;;;;;;;;;5010979;28;20656;-69
2022/05/05 01:17:37;;;;;;;12.87;8.70;;;;;;;;;;5002734;28;20225;-69
2022/05/05 01:20:12;;;;;;;12.77;7.67;;;;;;;;;;5008429;28;20175;-69
2022/05/05 01:22:37;;;;;;;12.83;8.03;;;;;;;;;;5008128;28;20608;-69
2022/05/05 01:30:31;;;;;;;12.30;7.70;;;;;;;;;;5011513;28;20266;-68
2022/05/05 01:32:56;;;;;;;10.80;7.57;;;;;;;;;;5011720;28;20226;-68
2022/05/05 01:35:21;;;;;;;13.17;8.33;;;;;;;;;;5011996;28;20229;-70
2022/05/05 01:37:47;;;;;;;10.00;7.27;;;;;;;;;;5009668;28;20267;-70
2022/05/05 01:40:12;;;;;;;12.80;7.07;;;;;;;;;;5004732;28;20188;-69
2022/05/05 01:42:38;;;;;;;11.37;8.00;;;;;;;;;;5012209;28;20175;-69
2022/05/05 01:45:04;;;;;;;10.13;7.00;;;;;;;;;;5000031;28;20211;-69
2022/05/05 01:47:29;;;;;;;9.83;7.53;;;;;;;;;;5009693;28;20551;-70
2022/05/05 01:49:57;;;;;;;12.40;7.63;;;;;;;;;;5011969;28;20187;-69
2022/05/05 01:52:22;;;;;;;13.30;7.73;;;;;;;;;;5005261;28;20230;-69
2022/05/05 01:54:47;;;;;;;11.43;7.70;;;;;;;;;;5011517;28;20728;-68
2022/05/05 01:57:12;;;;;;;15.77;7.10;;;;;;;;;;5011060;28;20185;-69
2022/05/05 01:59:39;;;;;;;12.20;7.83;;;;;;;;;;5009288;28;20489;-70
2022/05/05 02:02:04;;;;;;;13.90;9.07;;;;;;;;;;5014240;28;20269;-70
2022/05/05 02:04:30;;;;;;;10.87;7.63;;;;;;;;;;4997857;28;20187;-70
2022/05/05 02:06:55;;;;;;;10.50;7.30;;;;;;;;;;5003757;28;20184;-70
2022/05/05 02:09:20;;;;;;;12.37;8.27;;;;;;;;;;5008644;28;20174;-70
2022/05/05 02:11:45;;;;;;;11.10;7.43;;;;;;;;;;5002037;28;20242;-70
2022/05/05 02:14:10;;;;;;;13.33;9.07;;;;;;;;;;5010063;28;20482;-70
2022/05/05 02:16:35;;;;;;;14.10;9.00;;;;;;;;;;5003120;28;20183;-68
2022/05/05 02:19:01;;;;;;;12.63;7.83;;;;;;;;;;5008056;28;20182;-68
2022/05/05 02:21:26;;;;;;;12.40;7.40;;;;;;;;;;5011829;28;20202;-68
2022/05/05 02:23:51;;;;;;;11.70;8.40;;;;;;;;;;5007355;28;20267;-68
2022/05/05 02:26:16;;;;;;;10.73;7.00;;;;;;;;;;5003908;28;20191;-68
2022/05/05 02:28:41;;;;;;;11.10;7.10;;;;;;;;;;5003493;28;20222;-68
2022/05/05 02:31:06;;;;;;;9.57;6.40;;;;;;;;;;5001920;28;20199;-68
2022/05/05 02:33:32;;;;;;;11.53;7.03;;;;;;;;;;5010395;28;20526;-68
2022/05/05 02:38:44;;;;;;;12.87;6.97;;;;;;;;;;5010861;28;20186;-70
2022/05/05 02:41:09;;;;;;;9.60;7.03;;;;;;;;;;5004793;28;20663;-71
2022/05/05 02:43:34;;;;;;;11.20;6.83;;;;;;;;;;5001414;28;20191;-68
2022/05/05 02:46:00;;;;;;;10.83;7.83;;;;;;;;;;5007061;28;20179;-70
2022/05/05 02:48:25;;;;;;;12.03;7.50;;;;;;;;;;5008656;28;20210;-70
2022/05/05 02:50:50;;;;;;;11.97;7.40;;;;;;;;;;4998838;28;20231;-70
2022/05/05 02:55:59;;;;;;;10.23;6.83;;;;;;;;;;5005860;28;20210;-71
2022/05/05 02:58:25;;;;;;;11.53;7.37;;;;;;;;;;5004936;28;20637;-68
2022/05/05 03:00:50;;;;;;;11.50;6.47;;;;;;;;;;5008528;28;20211;-68
2022/05/05 03:03:15;;;;;;;10.40;7.20;;;;;;;;;;5010243;28;20189;-69
2022/05/05 03:05:40;;;;;;;10.93;7.27;;;;;;;;;;5007851;28;20190;-69
2022/05/05 03:08:06;;;;;;;11.20;8.27;;;;;;;;;;5002118;28;20214;-70
2022/05/05 03:10:31;;;;;;;10.50;7.63;;;;;;;;;;5002810;28;20202;-69
2022/05/05 03:12:56;;;;;;;10.37;6.77;;;;;;;;;;5008244;28;20193;-69
2022/05/05 03:15:22;;;;;;;12.37;7.27;;;;;;;;;;5010783;28;20193;-69
2022/05/05 03:17:48;;;;;;;12.80;7.63;;;;;;;;;;5011004;28;20187;-69
2022/05/05 03:20:13;;;;;;;15.33;8.17;;;;;;;;;;5013129;28;20175;-69
2022/05/05 03:22:38;;;;;;;14.00;8.40;;;;;;;;;;5012625;28;20193;-69
2022/05/05 03:25:04;;;;;;;21.30;10.18;;;;;;;;;;5012390;28;20183;-69
2022/05/05 03:27:29;;;;;;;14.30;8.87;;;;;;;;;;5010657;28;20187;-69
2022/05/05 03:29:54;;;;;;;12.93;8.80;;;;;;;;;;5012980;28;20207;-70
2022/05/05 03:32:19;;;;;;;15.97;9.30;;;;;;;;;;5008274;28;20256;-69
2022/05/05 03:34:44;;;;;;;16.67;9.13;;;;;;;;;;5010938;28;20230;-69
2022/05/05 03:37:09;;;;;;;13.90;8.73;;;;;;;;;;5009420;28;20210;-69
2022/05/05 03:39:35;;;;;;;17.23;9.87;;;;;;;;;;5007406;28;20258;-69
2022/05/05 03:42:00;;;;;;;16.57;9.40;;;;;;;;;;5011438;28;20214;-69
2022/05/05 03:44:25;;;;;;;14.57;9.27;;;;;;;;;;5007464;28;20175;-69
2022/05/05 03:46:50;;;;;;;17.03;10.70;;;;;;;;;;5011198;28;20183;-69
2022/05/05 03:49:16;;;;;;;12.03;8.70;;;;;;;;;;5004960;28;20175;-69
2022/05/05 03:51:41;;;;;;;15.37;9.80;;;;;;;;;;5012332;28;20225;-69
2022/05/05 03:54:06;;;;;;;17.83;10.07;;;;;;;;;;5009080;28;20202;-70
2022/05/05 03:56:31;;;;;;;17.37;10.67;;;;;;;;;;5014506;28;20171;-70
2022/05/05 03:58:57;;;;;;;13.83;9.10;;;;;;;;;;5011597;28;20179;-69
2022/05/05 04:01:22;;;;;;;17.63;11.53;;;;;;;;;;5011975;28;20222;-70
2022/05/05 04:03:47;;;;;;;15.10;9.07;;;;;;;;;;5013669;28;20187;-69
2022/05/05 04:06:13;;;;;;;19.23;11.03;;;;;;;;;;5000712;28;20207;-70
2022/05/05 04:08:38;;;;;;;19.17;10.50;;;;;;;;;;4999167;28;20225;-70
2022/05/05 04:11:04;;;;;;;18.77;11.20;;;;;;;;;;5013486;28;20261;-70
2022/05/05 04:13:29;;;;;;;16.40;12.17;;;;;;;;;;5006340;28;20467;-69
2022/05/05 04:15:55;;;;;;;17.00;11.10;;;;;;;;;;5007919;28;20241;-70
2022/05/05 04:18:20;;;;;;;17.77;10.03;;;;;;;;;;5007289;28;20233;-70
2022/05/05 04:20:47;;;;;;;17.40;10.37;;;;;;;;;;5011651;28;20249;-70
2022/05/05 04:23:12;;;;;;;17.33;12.37;;;;;;;;;;5011271;28;20652;-70
2022/05/05 04:25:39;;;;;;;17.43;11.80;;;;;;;;;;5012747;28;20228;-69
2022/05/05 04:28:05;;;;;;;19.93;12.77;;;;;;;;;;5010706;28;20181;-69
2022/05/05 04:30:31;;;;;;;23.67;13.23;;;;;;;;;;5009484;28;20486;-70
2022/05/05 04:32:56;;;;;;;18.73;12.13;;;;;;;;;;5006089;28;20187;-69
2022/05/05 04:35:23;;;;;;;19.77;12.63;;;;;;;;;;5001259;28;20216;-68
2022/05/05 04:37:48;;;;;;;23.37;13.43;;;;;;;;;;5011118;28;20190;-70
2022/05/05 04:40:14;;;;;;;22.60;14.00;;;;;;;;;;5013199;28;20179;-69
2022/05/05 04:42:39;;;;;;;22.53;14.93;;;;;;;;;;5010616;28;20183;-69
2022/05/05 04:45:04;;;;;;;20.53;14.60;;;;;;;;;;5007089;28;20246;-69
2022/05/05 04:47:31;;;;;;;23.37;14.87;;;;;;;;;;5002428;28;20186;-68
2022/05/05 04:49:57;;;;;;;22.90;15.33;;;;;;;;;;5012209;28;20188;-69
2022/05/05 04:52:22;;;;;;;20.37;13.83;;;;;;;;;;5004780;28;20202;-70
2022/05/05 04:54:47;;;;;;;26.67;15.70;;;;;;;;;;5006107;28;20269;-69
2022/05/05 04:57:13;;;;;;;24.30;14.83;;;;;;;;;;5003031;28;20187;-69
2022/05/05 04:59:38;;;;;;;21.97;14.60;;;;;;;;;;5000651;28;20178;-69
2022/05/05 05:02:04;;;;;;;21.27;15.17;;;;;;;;;;5002890;28;20249;-70
2022/05/05 05:04:29;;;;;;;25.20;13.77;;;;;;;;;;5006233;28;20211;-69
2022/05/05 05:06:54;;;;;;;23.67;14.50;;;;;;;;;;5004551;28;20183;-69
2022/05/05 05:09:20;;;;;;;18.97;14.20;;;;;;;;;;5008146;28;20189;-69
2022/05/05 05:11:45;;;;;;;23.07;14.00;;;;;;;;;;5011869;28;20203;-69
2022/05/05 05:14:10;;;;;;;21.05;14.20;;;;;;;;;;5004802;28;20713;-69
2022/05/05 05:16:36;;;;;;;21.47;14.20;;;;;;;;;;5009218;28;20183;-71
2022/05/05 05:19:01;;;;;;;24.00;15.20;;;;;;;;;;5009356;28;20192;-68
2022/05/05 05:21:26;;;;;;;23.30;14.63;;;;;;;;;;5003311;28;20210;-69
2022/05/05 05:23:51;;;;;;;22.23;13.93;;;;;;;;;;5008735;28;20222;-71
2022/05/05 05:26:16;;;;;;;21.43;14.80;;;;;;;;;;5004472;28;20184;-70
2022/05/05 05:28:42;;;;;;;24.43;14.37;;;;;;;;;;5004592;28;20265;-70
2022/05/05 05:31:07;;;;;;;20.07;13.73;;;;;;;;;;5008126;28;20199;-70
2022/05/05 05:33:32;;;;;;;20.47;13.50;;;;;;;;;;4999156;28;20199;-70
2022/05/05 05:35:57;;;;;;;24.10;15.10;;;;;;;;;;5009006;28;20198;-70
2022/05/05 05:38:23;;;;;;;20.47;13.67;;;;;;;;;;5009644;28;20381;-68
2022/05/05 05:40:48;;;;;;;22.30;14.47;;;;;;;;;;5005482;28;20199;-70
2022/05/05 05:43:13;;;;;;;22.37;14.00;;;;;;;;;;5007416;28;20225;-71
2022/05/05 05:45:38;;;;;;;17.47;12.83;;;;;;;;;;5011089;28;20582;-70
2022/05/05 05:48:04;;;;;;;19.93;14.13;;;;;;;;;;5006861;28;20198;-69
2022/05/05 05:50:30;;;;;;;19.70;13.63;;;;;;;;;;5009739;28;20240;-70
2022/05/05 05:52:56;;;;;;;20.47;13.17;;;;;;;;;;5011237;28;20275;-70
2022/05/05 05:55:21;;;;;;;22.40;13.70;;;;;;;;;;5012682;28;20708;-70
2022/05/05 05:57:46;;;;;;;22.80;14.40;;;;;;;;;;5008764;28;20183;-68
2022/05/05 06:00:12;;;;;;;22.13;13.43;;;;;;;;;;5008650;28;20201;-70
2022/05/05 06:05:21;;;;;;;20.60;13.63;;;;;;;;;;5006728;28;20221;-70
2022/05/05 06:07:46;;;;;;;24.67;14.00;;;;;;;;;;5010367;28;20215;-70
2022/05/05 06:10:11;;;;;;;23.07;14.37;;;;;;;;;;5007078;28;20191;-68
2022/05/05 06:12:36;;;;;;;17.50;12.50;;;;;;;;;;5008887;28;20179;-69
2022/05/05 06:15:02;;;;;;;16.97;13.27;;;;;;;;;;5009618;28;20287;-71
2022/05/05 06:17:27;;;;;;;22.77;14.40;;;;;;;;;;5010122;28;21659;-71
2022/05/05 06:19:53;;;;;;;20.07;13.57;;;;;;;;;;5007838;28;20667;-70
2022/05/05 06:22:18;;;;;;;23.67;12.93;;;;;;;;;;5007599;28;20198;-70
2022/05/05 06:24:43;;;;;;;24.13;12.60;;;;;;;;;;5004808;28;20187;-71
2022/05/05 06:27:08;;;;;;;23.23;14.03;;;;;;;;;;5010796;28;20175;-71
2022/05/05 06:29:33;;;;;;;22.63;13.57;;;;;;;;;;5008140;28;20175;-70
2022/05/05 06:31:58;;;;;;;19.40;12.98;;;;;;;;;;5008627;28;20234;-71
2022/05/05 06:34:24;;;;;;;20.40;13.20;;;;;;;;;;5006931;28;20203;-70
2022/05/05 06:36:49;;;;;;;19.40;13.90;;;;;;;;;;5005552;28;20503;-70
2022/05/05 06:39:14;;;;;;;20.10;13.40;;;;;;;;;;5006029;28;20885;-70
2022/05/05 06:41:39;;;;;;;19.00;13.85;;;;;;;;;;5000532;28;20455;-70
2022/05/05 06:44:04;;;;;;;24.25;13.63;;;;;;;;;;5011032;28;20699;-71
2022/05/05 06:46:30;;;;;;;18.17;12.98;;;;;;;;;;5010277;28;20206;-71
2022/05/05 06:48:55;;;;;;;19.58;12.00;;;;;;;;;;5009849;28;20482;-68
2022/05/05 06:51:20;;;;;;;18.20;12.25;;;;;;;;;;5010672;28;20290;-70
2022/05/05 06:53:45;;;;;;;17.77;13.88;;;;;;;;;;5006728;28;20242;-71
2022/05/05 06:56:10;;;;;;;23.75;13.50;;;;;;;;;;5010310;28;20566;-70
2022/05/05 06:58:36;;;;;;;25.25;14.70;;;;;;;;;;5007268;28;20241;-71
2022/05/05 07:03:45;;;;;;;17.85;13.50;;;;;;;;;;4999192;28;20203;-71
2022/05/05 07:06:10;;;;;;;20.40;13.23;;;;;;;;;;4998832;28;20712;-70
2022/05/05 07:11:20;;;;;;;22.17;14.63;;;;;;;;;;5004923;28;20597;-70
2022/05/05 07:13:45;;;;;;;23.08;13.90;;;;;;;;;;5004570;28;20198;-71
2022/05/05 07:16:11;;;;;;;19.87;14.60;;;;;;;;;;5004128;28;20175;-70
2022/05/05 07:18:36;;;;;;;21.70;14.77;;;;;;;;;;5010135;28;20811;-70
2022/05/05 07:21:01;;;;;;;17.15;12.73;;;;;;;;;;5005105;28;20199;-71
2022/05/05 07:23:26;;;;;;;25.83;14.73;;;;;;;;;;5006596;28;20366;-70
2022/05/05 07:25:51;;;;;;;19.80;14.07;;;;;;;;;;5003949;28;20187;-70
2022/05/05 07:28:17;;;;;;;26.25;14.40;;;;;;;;;;5009829;28;20522;-69
2022/05/05 07:30:42;;;;;;;30.08;14.40;;;;;;;;;;5005004;28;20207;-68
2022/05/05 07:33:07;;;;;;;22.67;13.57;;;;;;;;;;5002520;28;20261;-70
2022/05/05 07:35:33;;;;;;;21.20;13.30;;;;;;;;;;5004905;28;20175;-68
2022/05/05 07:37:58;;;;;;;21.63;12.65;;;;;;;;;;5002137;28;20417;-69
2022/05/05 07:40:23;;;;;;;22.02;12.80;;;;;;;;;;5009878;28;20175;-68
2022/05/05 07:42:48;;;;;;;21.17;13.35;;;;;;;;;;5004322;28;20673;-68
2022/05/05 07:45:13;;;;;;;22.90;14.07;;;;;;;;;;4993165;28;20199;-68
2022/05/05 07:47:39;;;;;;;20.75;13.65;;;;;;;;;;5007268;28;20813;-68
2022/05/05 07:50:05;;;;;;;20.88;13.00;;;;;;;;;;5009928;28;20201;-69
2022/05/05 07:52:30;;;;;;;20.33;14.02;;;;;;;;;;5010262;28;20217;-68
2022/05/05 07:54:55;;;;;;;19.58;13.75;;;;;;;;;;5010534;28;20221;-69
2022/05/05 07:57:20;;;;;;;23.55;15.30;;;;;;;;;;5010119;28;20179;-69
2022/05/05 07:59:46;;;;;;;21.13;14.73;;;;;;;;;;5010691;28;20608;-69
2022/05/05 08:02:14;;;;;;;19.80;14.95;;;;;;;;;;5016817;28;20463;-68
2022/05/05 08:04:39;;;;;;;20.25;15.23;;;;;;;;;;5014192;28;20178;-70
2022/05/05 08:07:05;;;;;;;21.88;16.25;;;;;;;;;;5014633;28;20179;-70
2022/05/05 08:09:30;;;;;;;20.48;14.25;;;;;;;;;;5009004;28;20185;-70
2022/05/05 08:11:55;;;;;;;24.05;15.73;;;;;;;;;;5013716;28;20202;-70
2022/05/05 08:14:20;;;;;;;22.30;16.50;;;;;;;;;;5012661;28;20198;-67
2022/05/05 08:16:45;;;;;;;25.97;16.63;;;;;;;;;;5012839;28;20572;-69
2022/05/05 08:19:11;;;;;;;23.80;16.23;;;;;;;;;;5007908;28;20412;-69
2022/05/05 08:21:36;;;;;;;24.30;16.63;;;;;;;;;;5009807;28;20965;-68
2022/05/05 08:29:29;;;;;;;23.77;17.35;;;;;;;;;;5008153;28;20186;-68
2022/05/05 08:31:54;;;;;;;26.87;18.00;;;;;;;;;;5012993;28;20199;-68
2022/05/05 08:34:20;;;;;;;28.08;19.20;;;;;;;;;;5013778;28;20456;-68
2022/05/05 08:36:45;;;;;;;26.73;21.00;;;;;;;;;;5014370;28;20183;-69
2022/05/05 08:39:10;;;;;;;28.58;19.08;;;;;;;;;;5006438;28;20206;-68
2022/05/05 08:41:38;;;;;;;25.17;19.58;;;;;;;;;;5019756;28;20201;-69
2022/05/05 08:44:03;;;;;;;29.90;18.48;;;;;;;;;;5010801;28;20199;-68
2022/05/05 08:46:29;;;;;;;26.95;20.40;;;;;;;;;;5008195;28;20617;-69
2022/05/05 08:48:59;;;;;;;24.33;19.63;;;;;;;;;;5012967;28;20552;-69
2022/05/05 08:51:25;;;;;;;25.42;18.80;;;;;;;;;;5012664;28;20206;-69
2022/05/05 08:53:53;;;;;;;31.20;22.65;;;;;;;;;;5013328;28;20691;-69
2022/05/05 08:56:18;;;;;;;31.27;23.75;;;;;;;;;;5010752;28;20187;-69
2022/05/05 08:58:43;;;;;;;28.47;22.97;;;;;;;;;;5009887;28;20183;-69
2022/05/05 09:01:08;;;;;;;32.47;22.43;;;;;;;;;;5016961;28;20510;-70
2022/05/05 09:03:35;;;;;;;29.45;21.25;;;;;;;;;;5012883;28;20408;-69
2022/05/05 09:06:01;;;;;;;33.70;21.83;;;;;;;;;;5012798;28;20210;-68
2022/05/05 09:08:27;;;;;;;24.33;20.20;;;;;;;;;;5012729;28;20214;-68
2022/05/05 09:11:03;;;;;;;28.55;20.77;;;;;;;;;;5012513;28;20230;-68
2022/05/05 09:13:29;;;;;;;36.60;22.10;;;;;;;;;;5012425;28;20190;-69
2022/05/05 09:15:55;;;;;;;31.27;22.40;;;;;;;;;;5003683;28;20258;-69
2022/05/05 09:18:21;;;;;;;34.22;24.15;;;;;;;;;;5019043;28;20261;-69
2022/05/05 09:20:47;;;;;;;29.20;23.23;;;;;;;;;;5012537;28;20198;-69
2022/05/05 09:23:31;;;;;;;33.10;22.60;;;;;;;;;;5007466;28;20190;-69
2022/05/05 09:25:57;;;;;;;29.10;23.00;;;;;;;;;;5007782;28;20542;-68
2022/05/05 09:28:23;;;;;;;29.55;23.08;;;;;;;;;;5012076;28;20171;-69
2022/05/05 09:30:49;;;;;;;32.20;23.63;;;;;;;;;;5012923;28;20612;-68
2022/05/05 09:33:33;;;;;;;32.40;24.92;;;;;;;;;;5012508;28;20225;-69
2022/05/05 09:35:59;;;;;;;36.17;26.35;;;;;;;;;;5018429;28;20193;-68
2022/05/05 09:38:24;;;;;;;35.85;24.48;;;;;;;;;;5014853;28;20179;-68
2022/05/05 09:41:03;;;;;;;34.97;26.57;;;;;;;;;;5008379;28;20222;-68
2022/05/05 09:43:28;;;;;;;37.15;25.42;;;;;;;;;;5011514;28;20419;-68
2022/05/05 09:45:57;;;;;;;37.13;28.00;;;;;;;;;;5003142;28;20180;-68
2022/05/05 09:48:32;;;;;;;35.58;27.55;;;;;;;;;;5005684;28;20198;-68
2022/05/05 09:51:03;;;;;;;37.53;27.42;;;;;;;;;;5009925;28;20197;-68
2022/05/05 09:59:12;;;;;;;35.17;26.88;;;;;;;;;;5010713;28;20182;-68
2022/05/05 10:01:41;;;;;;;34.67;25.98;;;;;;;;;;5011241;28;20223;-68
2022/05/05 10:04:07;;;;;;;30.77;25.40;;;;;;;;;;5012047;28;20210;-68
2022/05/05 10:06:36;;;;;;;31.48;25.17;;;;;;;;;;5012148;28;20179;-68
2022/05/05 10:09:05;;;;;;;35.35;26.25;;;;;;;;;;5011615;28;20179;-69
2022/05/05 10:11:31;;;;;;;30.90;24.73;;;;;;;;;;5012095;28;20685;-68
2022/05/05 10:13:56;;;;;;;37.20;25.40;;;;;;;;;;5011605;28;20237;-68
2022/05/05 10:16:22;;;;;;;36.83;25.33;;;;;;;;;;5012033;28;20262;-68
2022/05/05 10:18:47;;;;;;;32.00;24.67;;;;;;;;;;5011242;28;20186;-68
2022/05/05 10:21:16;;;;;;;31.88;25.35;;;;;;;;;;5011636;28;20207;-68
2022/05/05 10:23:41;;;;;;;34.30;23.63;;;;;;;;;;5011807;28;20305;-69
2022/05/05 10:26:07;;;;;;;30.65;23.92;;;;;;;;;;5011316;28;20225;-68
2022/05/05 10:28:41;;;;;;;27.88;21.33;;;;;;;;;;5008090;28;20178;-68
2022/05/05 10:31:10;;;;;;;28.45;22.92;;;;;;;;;;5012164;28;20739;-68
2022/05/05 10:33:54;;;;;;;27.50;22.55;;;;;;;;;;5011928;28;20197;-68
2022/05/05 10:36:25;;;;;;;27.83;23.50;;;;;;;;;;5011873;28;20177;-68
2022/05/05 10:38:51;;;;;;;30.13;23.23;;;;;;;;;;5005040;28;20189;-68
2022/05/05 10:41:28;;;;;;;24.98;22.17;;;;;;;;;;5008245;28;20195;-67
2022/05/05 10:44:13;;;;;;;27.13;22.05;;;;;;;;;;5015311;28;20192;-67
2022/05/05 10:46:51;;;;;;;26.65;22.17;;;;;;;;;;5011275;28;20174;-68
2022/05/05 10:49:37;;;;;;;25.95;22.13;;;;;;;;;;5008802;28;20182;-68
2022/05/05 10:52:09;;;;;;;29.88;23.92;;;;;;;;;;5008028;28;20580;-68
2022/05/05 10:54:35;;;;;;;29.40;23.67;;;;;;;;;;5011485;28;20563;-68
2022/05/05 10:57:19;;;;;;;26.20;22.10;;;;;;;;;;5011738;28;20183;-68
2022/05/05 11:00:03;;;;;;;27.35;20.88;;;;;;;;;;5010573;28;20182;-68
2022/05/05 11:02:28;;;;;;;24.98;20.92;;;;;;;;;;5010086;28;20245;-69
2022/05/05 11:05:13;;;;;;;25.70;20.37;;;;;;;;;;5008811;28;20214;-68
2022/05/05 11:07:38;;;;;;;24.50;20.42;;;;;;;;;;5010405;28;20186;-69
2022/05/05 11:10:05;;;;;;;23.08;20.33;;;;;;;;;;5009728;28;20175;-67
2022/05/05 11:12:34;;;;;;;20.10;17.20;;;;;;;;;;5006610;28;20202;-68
2022/05/05 11:23:26;;;;;;;22.60;18.27;;;;;;;;;;5002279;28;20325;-68
2022/05/05 11:25:54;;;;;;;25.13;21.45;;;;;;;;;;4997969;28;20713;-68
2022/05/05 11:28:19;;;;;;;26.40;20.83;;;;;;;;;;5002551;28;20206;-68
2022/05/05 11:30:45;;;;;;;25.85;21.40;;;;;;;;;;4995639;28;20195;-68
2022/05/05 11:33:11;;;;;;;27.65;22.38;;;;;;;;;;5007092;28;20186;-68
2022/05/05 11:35:36;;;;;;;24.77;22.03;;;;;;;;;;4995934;28;20175;-68
2022/05/05 11:38:01;;;;;;;25.02;21.15;;;;;;;;;;5008340;28;20771;-68
2022/05/05 11:40:33;;;;;;;22.07;19.77;;;;;;;;;;5010634;28;20678;-68
2022/05/05 11:45:42;;;;;;;21.48;19.08;;;;;;;;;;5009741;28;20194;-68
2022/05/05 11:48:17;;;;;;;25.40;19.47;;;;;;;;;;5012661;28;20195;-68
2022/05/05 11:50:45;;;;;;;22.42;19.92;;;;;;;;;;5014901;28;20202;-68
2022/05/05 11:53:14;;;;;;;23.00;19.55;;;;;;;;;;5012948;28;20645;-68
2022/05/05 11:55:39;;;;;;;23.42;20.92;;;;;;;;;;5013183;28;20190;-69
2022/05/05 11:58:13;;;;;;;21.52;19.05;;;;;;;;;;5013815;28;20175;-68
2022/05/05 12:03:22;;;;;;;22.13;19.85;;;;;;;;;;5012683;28;20258;-68
2022/05/05 12:05:52;;;;;;;22.77;19.53;;;;;;;;;;5012987;28;20281;-68
2022/05/05 12:08:18;;;;;;;21.63;19.33;;;;;;;;;;4999737;28;20197;-68
2022/05/05 12:10:44;;;;;;;21.65;19.35;;;;;;;;;;5014877;28;20214;-69
2022/05/05 12:13:09;;;;;;;23.17;20.67;;;;;;;;;;5012041;28;20178;-68
2022/05/05 12:15:37;;;;;;;26.85;22.40;;;;;;;;;;5011769;28;20428;-68
2022/05/05 12:18:02;;;;;;;24.98;21.42;;;;;;;;;;5013156;28;20183;-68
2022/05/05 12:20:28;;;;;;;23.63;21.05;;;;;;;;;;5013929;28;20210;-68
2022/05/05 12:22:53;;;;;;;25.88;22.23;;;;;;;;;;5013717;28;20203;-68
2022/05/05 12:25:18;;;;;;;24.65;21.95;;;;;;;;;;5012490;28;20685;-69
2022/05/05 12:27:53;;;;;;;23.80;21.00;;;;;;;;;;5013027;28;20249;-68
2022/05/05 12:30:33;;;;;;;23.95;21.27;;;;;;;;;;5012600;28;20184;-68
2022/05/05 12:32:58;;;;;;;23.52;19.73;;;;;;;;;;5012147;28;20267;-68
2022/05/05 12:35:30;;;;;;;23.20;20.80;;;;;;;;;;5009335;28;20290;-68
2022/05/05 12:37:56;;;;;;;23.38;20.60;;;;;;;;;;5004122;28;20772;-69
2022/05/05 12:40:21;;;;;;;21.20;18.98;;;;;;;;;;5012247;28;20258;-68
2022/05/05 12:42:48;;;;;;;21.90;19.70;;;;;;;;;;5014160;28;20254;-68
2022/05/05 12:45:16;;;;;;;23.77;20.33;;;;;;;;;;5004591;28;20198;-68
2022/05/05 12:47:43;;;;;;;24.10;19.55;;;;;;;;;;5011225;28;20548;-68
2022/05/05 12:50:26;;;;;;;22.73;19.00;;;;;;;;;;5012643;28;20179;-68
2022/05/05 13:01:03;;;;;;;21.15;19.00;;;;;;;;;;5013353;28;20240;-68
2022/05/05 13:03:29;;;;;;;23.23;20.92;;;;;;;;;;5012350;28;20712;-68
2022/05/05 13:05:54;;;;;;;20.73;18.52;;;;;;;;;;5011957;28;20221;-69
2022/05/05 13:08:19;;;;;;;21.53;16.33;;;;;;;;;;5010146;28;20179;-68
2022/05/05 13:10:45;;;;;;;23.47;20.13;;;;;;;;;;5010494;28;20269;-69
2022/05/05 13:13:11;;;;;;;20.70;18.50;;;;;;;;;;5012228;28;20175;-68
2022/05/05 13:15:36;;;;;;;19.83;17.65;;;;;;;;;;5012764;28;20174;-68
2022/05/05 13:18:02;;;;;;;17.60;14.75;;;;;;;;;;5012190;28;20171;-68
2022/05/05 13:20:28;;;;;;;18.40;16.23;;;;;;;;;;5011224;28;20198;-67
2022/05/05 13:22:53;;;;;;;18.63;15.70;;;;;;;;;;5012393;28;20552;-69
2022/05/05 13:25:18;;;;;;;18.45;14.77;;;;;;;;;;5012678;28;20312;-69
2022/05/05 13:27:43;;;;;;;18.80;16.03;;;;;;;;;;5012437;28;20195;-68
2022/05/05 13:30:09;;;;;;;19.87;16.67;;;;;;;;;;5010681;28;20187;-68
2022/05/05 13:32:34;;;;;;;17.55;15.15;;;;;;;;;;5011233;28;20191;-69
2022/05/05 13:35:00;;;;;;;20.33;16.03;;;;;;;;;;5011378;28;20218;-68
2022/05/05 13:37:25;;;;;;;15.57;13.35;;;;;;;;;;5011729;28;20421;-68
2022/05/05 13:39:50;;;;;;;18.10;14.30;;;;;;;;;;5011232;28;20241;-68
2022/05/05 13:42:15;;;;;;;15.83;14.23;;;;;;;;;;5012247;28;20728;-68
2022/05/05 13:44:40;;;;;;;18.60;14.77;;;;;;;;;;5010574;28;20229;-68
2022/05/05 13:47:06;;;;;;;13.73;12.27;;;;;;;;;;5007849;28;20186;-68
2022/05/05 13:49:31;;;;;;;14.07;11.35;;;;;;;;;;5009355;28;20262;-68
2022/05/05 13:51:56;;;;;;;14.27;12.77;;;;;;;;;;5011851;28;20205;-68
2022/05/05 13:54:21;;;;;;;17.07;15.03;;;;;;;;;;5013300;28;20471;-68
2022/05/05 13:56:46;;;;;;;17.93;16.03;;;;;;;;;;5012059;28;20187;-68
2022/05/05 13:59:12;;;;;;;17.67;15.88;;;;;;;;;;5010992;28;20503;-68
2022/05/05 14:01:37;;;;;;;18.27;16.38;;;;;;;;;;5011871;28;20230;-68
2022/05/05 14:04:03;;;;;;;16.67;14.88;;;;;;;;;;5010406;28;20541;-69
2022/05/05 14:06:29;;;;;;;16.52;13.82;;;;;;;;;;5011129;28;20170;-69
2022/05/05 14:14:22;;;;;;;16.73;14.10;;;;;;;;;;5010950;28;20205;-69
2022/05/05 14:16:47;;;;;;;13.60;12.20;;;;;;;;;;5011535;28;20263;-68
2022/05/05 14:19:13;;;;;;;11.93;10.73;;;;;;;;;;5009390;28;20946;-68
2022/05/05 14:21:38;;;;;;;12.20;10.60;;;;;;;;;;5010106;28;20277;-68
2022/05/05 14:24:03;;;;;;;13.67;10.87;;;;;;;;;;5009943;28;20186;-68
2022/05/05 14:26:28;;;;;;;11.60;10.40;;;;;;;;;;5011139;28;20434;-69
2022/05/05 14:28:53;;;;;;;14.47;12.13;;;;;;;;;;5009548;28;20700;-68
2022/05/05 14:31:19;;;;;;;10.40;9.40;;;;;;;;;;5013621;28;20524;-69
2022/05/05 14:33:44;;;;;;;9.13;8.18;;;;;;;;;;5009294;28;20190;-68
2022/05/05 14:36:09;;;;;;;10.88;9.77;;;;;;;;;;5011002;28;20171;-69
2022/05/05 14:38:34;;;;;;;11.27;9.57;;;;;;;;;;5010522;28;20182;-68
2022/05/05 14:41:00;;;;;;;12.07;10.87;;;;;;;;;;5010635;28;20722;-68
2022/05/05 14:43:25;;;;;;;13.32;9.95;;;;;;;;;;5009872;28;20510;-69
2022/05/05 14:45:50;;;;;;;12.52;11.10;;;;;;;;;;5006377;28;20499;-68
2022/05/05 14:48:16;;;;;;;11.48;10.35;;;;;;;;;;4999844;28;20187;-68
2022/05/05 14:50:41;;;;;;;13.40;11.85;;;;;;;;;;5010354;28;20684;-69
2022/05/05 14:53:06;;;;;;;14.30;11.10;;;;;;;;;;5010769;28;20194;-68
2022/05/05 14:55:31;;;;;;;11.60;10.40;;;;;;;;;;5010787;28;20218;-68
2022/05/05 14:57:58;;;;;;;12.77;11.47;;;;;;;;;;5008770;28;20236;-68
2022/05/05 15:00:23;;;;;;;13.13;11.93;;;;;;;;;;5009415;28;20523;-68
2022/05/05 15:02:48;;;;;;;15.02;12.73;;;;;;;;;;5013070;28;20266;-68
2022/05/05 15:05:16;;;;;;;13.33;11.37;;;;;;;;;;5007931;28;20246;-69
2022/05/05 15:07:41;;;;;;;14.20;12.02;;;;;;;;;;5007231;28;20570;-68
2022/05/05 15:10:07;;;;;;;13.85;12.45;;;;;;;;;;5011682;28;20258;-68
2022/05/05 15:12:32;;;;;;;14.98;13.52;;;;;;;;;;5014633;28;20276;-69
2022/05/05 15:14:57;;;;;;;15.10;13.60;;;;;;;;;;5014945;28;20198;-68
2022/05/05 15:17:22;;;;;;;14.20;12.53;;;;;;;;;;5014998;28;20222;-68